Time;durP1;ratioP1;P1;durP2;ratioP2;P2;SDS_P1;SDS_P2;PMS_P1;PMS_P2;Temp;Humidity;BMP_temperature;BMP_pressure;BME280_temperature;BME280_humidity;BME280_pressure;Samples;Min_cycle;Max_cycle;Signal;HPM_P1;HPM_P2
2022/05/10 00:01:33;;;;;;;;;;;16.70;61.50;;;;;;5017954;28;19909;-80
2022/05/10 00:07:02;;;;;;;;;;;16.60;61.80;;;;;;5033820;28;19927;-79
2022/05/10 00:09:29;;;;;;;;;;;16.60;61.70;;;;;;5031033;28;19951;-80
2022/05/10 00:11:55;;;;;;;;;;;16.60;61.50;;;;;;5029324;28;19909;-80
2022/05/10 00:17:05;;;;;;;;;;;16.50;61.60;;;;;;5035926;28;19982;-80
2022/05/10 00:22:15;;;;;;;;;;;16.50;62.60;;;;;;5042349;28;20005;-80
2022/05/10 00:24:41;;;;;;;;;;;16.50;62.70;;;;;;5015894;28;20004;-80
2022/05/10 00:29:50;;;;;;;;;;;16.50;64.10;;;;;;5020321;28;19928;-80
2022/05/10 00:32:16;;;;;;;;;;;16.50;63.70;;;;;;5001411;28;19909;-80
2022/05/10 00:34:43;;;;;;;;;;;16.50;63.50;;;;;;5017733;28;19913;-80
2022/05/10 00:37:09;;;;;;;;;;;16.50;63.70;;;;;;5035191;28;19905;-79
2022/05/10 00:39:54;;;;;;;;;;;16.40;63.50;;;;;;5035535;28;19912;-80
2022/05/10 00:42:27;;;;;;;;;;;16.40;63.70;;;;;;5035062;28;19939;-80
2022/05/10 00:47:43;;;;;;;;;;;16.40;63.90;;;;;;5040234;28;20273;-79
2022/05/10 00:56:08;;;;;;;;;;;16.30;64.00;;;;;;5054462;28;19911;-78
2022/05/10 00:58:52;;;;;;;;;;;16.30;63.80;;;;;;5037098;28;20428;-79
2022/05/10 01:04:40;;;;;;;;;;;16.20;64.20;;;;;;5055206;28;19915;-79
2022/05/10 01:07:24;;;;;;;;;;;16.00;63.90;;;;;;5039235;28;19923;-77
2022/05/10 01:12:44;;;;;;;;;;;16.00;64.90;;;;;;5055065;28;19986;-78
2022/05/10 01:15:16;;;;;;;;;;;16.00;65.60;;;;;;5054804;28;20265;-78
2022/05/10 01:17:41;;;;;;;;;;;15.90;65.60;;;;;;5054198;28;19920;-78
2022/05/10 01:20:08;;;;;;;;;;;15.90;65.20;;;;;;5020295;28;19909;-78
2022/05/10 01:22:36;;;;;;;;;;;15.90;65.30;;;;;;5036495;28;19912;-78
2022/05/10 01:28:15;;;;;;;;;;;15.90;65.80;;;;;;5054737;28;19927;-78
2022/05/10 01:30:59;;;;;;;;;;;15.90;66.00;;;;;;5053942;28;20022;-78
2022/05/10 01:33:33;;;;;;;;;;;15.90;66.00;;;;;;5054175;28;19975;-79
2022/05/10 01:36:18;;;;;;;;;;;15.80;65.80;;;;;;5036145;28;19905;-78
2022/05/10 01:38:52;;;;;;;;;;;15.90;65.80;;;;;;5054114;28;19912;-78
2022/05/10 01:41:31;;;;;;;;;;;15.80;65.90;;;;;;5053935;28;19905;-79
2022/05/10 01:43:57;;;;;;;;;;;15.80;66.30;;;;;;5053884;28;19917;-78
2022/05/10 01:46:28;;;;;;;;;;;15.80;66.20;;;;;;5036307;28;19965;-79
2022/05/10 01:48:57;;;;;;;;;;;15.80;66.30;;;;;;5035916;28;19912;-79
2022/05/10 01:54:37;;;;;;;;;;;15.80;67.00;;;;;;5055409;28;20409;-79
2022/05/10 01:57:03;;;;;;;;;;;15.80;66.60;;;;;;5053776;28;19953;-79
2022/05/10 01:59:47;;;;;;;;;;;15.70;66.50;;;;;;5019696;28;20337;-79
2022/05/10 02:02:14;;;;;;;;;;;15.70;66.50;;;;;;5053719;28;20276;-80
2022/05/10 02:04:58;;;;;;;;;;;15.70;66.60;;;;;;5019538;28;19919;-81
2022/05/10 02:07:25;;;;;;;;;;;15.70;66.60;;;;;;5053442;28;19913;-80
2022/05/10 02:09:53;;;;;;;;;;;15.70;66.80;;;;;;5035412;28;20416;-81
2022/05/10 02:12:27;;;;;;;;;;;15.60;66.70;;;;;;5036017;28;19905;-81
2022/05/10 02:17:59;;;;;;;;;;;15.60;66.80;;;;;;5053614;28;19911;-80
2022/05/10 02:23:16;;;;;;;;;;;15.60;67.00;;;;;;5054363;28;19945;-80
2022/05/10 02:25:43;;;;;;;;;;;15.60;68.50;;;;;;5057914;28;20392;-80
2022/05/10 02:28:15;;;;;;;;;;;15.60;67.40;;;;;;5039889;28;19992;-80
2022/05/10 02:30:59;;;;;;;;;;;15.60;67.50;;;;;;5057674;28;19905;-79
2022/05/10 02:33:27;;;;;;;;;;;15.60;67.70;;;;;;5057442;28;20398;-79
2022/05/10 02:35:54;;;;;;;;;;;15.60;68.20;;;;;;5057998;28;19951;-79
2022/05/10 02:38:21;;;;;;;;;;;15.60;67.80;;;;;;5052931;28;19976;-78
2022/05/10 02:40:47;;;;;;;;;;;15.60;67.80;;;;;;5048524;28;19916;-79
2022/05/10 02:43:32;;;;;;;;;;;15.60;67.80;;;;;;5057036;28;19920;-79
2022/05/10 02:45:58;;;;;;;;;;;15.50;67.80;;;;;;5057290;28;19967;-79
2022/05/10 02:48:26;;;;;;;;;;;15.50;67.60;;;;;;5057091;28;19908;-80
2022/05/10 02:50:51;;;;;;;;;;;15.50;67.80;;;;;;5039581;28;20360;-80
2022/05/10 02:53:17;;;;;;;;;;;15.50;68.00;;;;;;5051900;28;19905;-79
2022/05/10 02:55:45;;;;;;;;;;;15.50;68.00;;;;;;5055693;28;20282;-80
2022/05/10 03:04:41;;;;;;;;;;;15.40;68.20;;;;;;5037569;28;19951;-79
2022/05/10 03:10:10;;;;;;;;;;;15.40;68.80;;;;;;5041473;28;19965;-79
2022/05/10 03:12:54;;;;;;;;;;;15.40;69.00;;;;;;5049488;28;20007;-80
2022/05/10 03:18:23;;;;;;;;;;;15.40;69.00;;;;;;5057311;28;19915;-79
2022/05/10 03:21:07;;;;;;;;;;;15.30;69.00;;;;;;5056857;28;19943;-79
2022/05/10 03:23:32;;;;;;;;;;;15.30;69.50;;;;;;5038776;28;19904;-79
2022/05/10 03:25:58;;;;;;;;;;;15.30;69.50;;;;;;5038775;28;19923;-79
2022/05/10 03:28:23;;;;;;;;;;;15.30;69.10;;;;;;5038625;28;19916;-79
2022/05/10 03:30:50;;;;;;;;;;;15.30;69.70;;;;;;5038603;28;20300;-79
2022/05/10 03:33:15;;;;;;;;;;;15.30;69.70;;;;;;5056527;28;19909;-78
2022/05/10 03:35:41;;;;;;;;;;;15.30;69.60;;;;;;5037480;28;19959;-80
2022/05/10 03:38:07;;;;;;;;;;;15.30;69.70;;;;;;5038769;28;19909;-79
2022/05/10 03:40:32;;;;;;;;;;;15.30;69.50;;;;;;5038428;28;19909;-79
2022/05/10 03:42:58;;;;;;;;;;;15.20;69.60;;;;;;5038443;28;20440;-79
2022/05/10 03:48:08;;;;;;;;;;;15.20;69.80;;;;;;5057497;28;19911;-79
2022/05/10 03:50:33;;;;;;;;;;;15.20;69.50;;;;;;5038390;28;19991;-79
2022/05/10 03:56:02;;;;;;;;;;;15.20;70.20;;;;;;5056063;28;19950;-79
2022/05/10 03:58:46;;;;;;;;;;;15.20;70.00;;;;;;5056665;28;19909;-79
2022/05/10 04:03:56;;;;;;;;;;;15.20;70.30;;;;;;5049629;28;19954;-76
2022/05/10 04:09:05;;;;;;;;;;;15.20;70.30;;;;;;5052511;28;20283;-77
2022/05/10 04:11:31;;;;;;;;;;;15.20;70.30;;;;;;5053934;28;19908;-77
2022/05/10 04:13:59;;;;;;;;;;;15.30;70.50;;;;;;5050875;28;19916;-77
2022/05/10 04:16:25;;;;;;;;;;;15.30;70.70;;;;;;5036198;28;20361;-77
2022/05/10 04:24:39;;;;;;;;;;;15.30;70.30;;;;;;5055956;28;19912;-78
2022/05/10 04:27:23;;;;;;;;;;;15.40;70.70;;;;;;5055568;28;20494;-77
2022/05/10 04:32:34;;;;;;;;;;;15.40;71.10;;;;;;5060601;28;19931;-77
2022/05/10 04:35:18;;;;;;;;;;;15.40;71.10;;;;;;5074816;28;19913;-77
2022/05/10 04:46:55;;;;;;;;;;;15.60;71.40;;;;;;5075635;28;19919;-77
2022/05/10 04:49:21;;;;;;;;;;;15.60;71.40;;;;;;5075140;28;19912;-76
2022/05/10 04:51:46;;;;;;;;;;;15.60;72.10;;;;;;5057138;28;19908;-77
2022/05/10 04:54:12;;;;;;;;;;;15.70;72.00;;;;;;5040026;28;20376;-76
2022/05/10 04:56:37;;;;;;;;;;;15.70;71.70;;;;;;5074763;28;19905;-76
2022/05/10 04:59:21;;;;;;;;;;;15.70;71.60;;;;;;5074920;28;19904;-76
2022/05/10 05:01:47;;;;;;;;;;;15.70;71.90;;;;;;5056812;28;20342;-76
2022/05/10 05:04:12;;;;;;;;;;;15.80;71.60;;;;;;5074305;28;19939;-77
2022/05/10 05:06:39;;;;;;;;;;;15.80;71.80;;;;;;5074480;28;19955;-76
2022/05/10 05:09:05;;;;;;;;;;;15.80;71.90;;;;;;5056561;28;20348;-76
2022/05/10 05:11:31;;;;;;;;;;;15.90;72.20;;;;;;5063597;28;19908;-79
2022/05/10 05:14:15;;;;;;;;;;;15.90;71.90;;;;;;5036670;28;19994;-79
2022/05/10 05:19:25;;;;;;;;;;;15.90;71.50;;;;;;5054129;28;19915;-80
2022/05/10 05:21:50;;;;;;;;;;;16.00;71.50;;;;;;5037192;28;19908;-79
2022/05/10 05:24:34;;;;;;;;;;;16.10;71.50;;;;;;5033158;28;19959;-79
2022/05/10 05:29:44;;;;;;;;;;;16.20;71.50;;;;;;5033657;28;19916;-79
2022/05/10 05:32:10;;;;;;;;;;;16.20;71.50;;;;;;5034582;28;19905;-80
2022/05/10 05:34:54;;;;;;;;;;;16.20;71.50;;;;;;5031722;28;19909;-79
2022/05/10 05:37:37;;;;;;;;;;;16.20;71.40;;;;;;5032811;28;19905;-80
2022/05/10 05:40:21;;;;;;;;;;;16.30;71.50;;;;;;5032657;28;19932;-79
2022/05/10 05:42:47;;;;;;;;;;;16.30;71.40;;;;;;5032809;28;20281;-80
2022/05/10 05:45:31;;;;;;;;;;;16.40;71.40;;;;;;5034979;28;19913;-80
2022/05/10 05:48:16;;;;;;;;;;;16.40;71.40;;;;;;5032987;28;19912;-80
2022/05/10 05:50:41;;;;;;;;;;;16.50;71.40;;;;;;5034839;28;19932;-81
2022/05/10 05:55:53;;;;;;;;;;;16.60;71.40;;;;;;5034820;28;20368;-79
2022/05/10 05:58:19;;;;;;;;;;;16.70;71.30;;;;;;5032490;28;20324;-80
2022/05/10 06:01:03;;;;;;;;;;;16.80;71.30;;;;;;5033916;28;19905;-80
2022/05/10 06:03:28;;;;;;;;;;;16.80;71.30;;;;;;5032771;28;20004;-80
2022/05/10 06:08:38;;;;;;;;;;;16.90;71.20;;;;;;5033162;28;20361;-79
2022/05/10 06:11:03;;;;;;;;;;;17.00;71.20;;;;;;5032492;28;19909;-80
2022/05/10 06:13:29;;;;;;;;;;;17.00;71.10;;;;;;5032584;28;20314;-80
2022/05/10 06:15:54;;;;;;;;;;;17.10;71.10;;;;;;5033708;28;19916;-80
2022/05/10 06:21:04;;;;;;;;;;;17.20;70.90;;;;;;5033072;28;20261;-80
2022/05/10 06:26:14;;;;;;;;;;;17.40;70.90;;;;;;5034296;28;19928;-80
2022/05/10 06:31:26;;;;;;;;;;;17.50;70.70;;;;;;5030669;28;19920;-80
2022/05/10 06:36:37;;;;;;;;;;;17.60;70.60;;;;;;5033996;28;19967;-80
2022/05/10 06:47:15;;;;;;;;;;;18.00;70.50;;;;;;5034714;28;19976;-80
2022/05/10 06:49:41;;;;;;;;;;;18.00;70.40;;;;;;5033280;28;19959;-81
2022/05/10 06:52:25;;;;;;;;;;;18.10;70.30;;;;;;5015953;28;19916;-79
2022/05/10 06:55:10;;;;;;;;;;;18.20;70.30;;;;;;5015203;28;19941;-80
2022/05/10 06:57:35;;;;;;;;;;;18.30;70.20;;;;;;5033018;28;19905;-79
2022/05/10 07:00:01;;;;;;;;;;;18.40;70.10;;;;;;5033427;28;19978;-79
2022/05/10 07:02:26;;;;;;;;;;;18.50;70.10;;;;;;5032067;28;19909;-78
2022/05/10 07:07:55;;;;;;;;;;;18.60;69.80;;;;;;5033622;28;19911;-80
2022/05/10 07:10:20;;;;;;;;;;;18.70;69.70;;;;;;5034109;28;20339;-79
2022/05/10 07:13:05;;;;;;;;;;;18.80;69.50;;;;;;5037039;28;19905;-79
2022/05/10 07:18:34;;;;;;;;;;;18.90;69.30;;;;;;5036663;28;19951;-79
2022/05/10 07:20:59;;;;;;;;;;;19.00;69.10;;;;;;5018873;28;19909;-79
2022/05/10 07:23:30;;;;;;;;;;;19.10;69.00;;;;;;5035589;28;19996;-79
2022/05/10 07:28:40;;;;;;;;;;;19.30;68.90;;;;;;5047831;28;20000;-78
2022/05/10 07:31:06;;;;;;;;;;;19.40;68.80;;;;;;5037012;28;19932;-81
2022/05/10 07:33:31;;;;;;;;;;;19.50;68.70;;;;;;5038349;28;19913;-78
2022/05/10 07:36:25;;;;;;;;;;;19.60;68.60;;;;;;5038532;28;20423;-80
2022/05/10 07:38:54;;;;;;;;;;;19.60;68.50;;;;;;5056248;28;19983;-79
2022/05/10 07:41:22;;;;;;;;;;;19.70;68.40;;;;;;5022294;28;19959;-78
2022/05/10 07:44:06;;;;;;;;;;;19.80;68.30;;;;;;5056286;28;20398;-79
2022/05/10 07:46:32;;;;;;;;;;;19.90;68.20;;;;;;5038160;28;19919;-79
2022/05/10 07:51:42;;;;;;;;;;;20.00;68.00;;;;;;5057372;28;19915;-79
2022/05/10 07:54:07;;;;;;;;;;;20.00;67.90;;;;;;5056021;28;20324;-79
2022/05/10 07:56:33;;;;;;;;;;;20.10;67.80;;;;;;5037981;28;19935;-80
2022/05/10 07:58:59;;;;;;;;;;;20.10;67.70;;;;;;5056174;28;19915;-79
2022/05/10 08:01:25;;;;;;;;;;;20.20;67.60;;;;;;5055908;28;20004;-80
2022/05/10 08:03:51;;;;;;;;;;;20.40;67.50;;;;;;5055938;28;19905;-80
2022/05/10 08:14:29;;;;;;;;;;;20.80;67.00;;;;;;5056916;28;19974;-80
2022/05/10 08:16:55;;;;;;;;;;;20.90;66.80;;;;;;5038350;28;20308;-80
2022/05/10 08:22:23;;;;;;;;;;;21.10;66.60;;;;;;5042247;28;19959;-80
2022/05/10 08:25:07;;;;;;;;;;;21.10;66.40;;;;;;5051903;28;20446;-80
2022/05/10 08:30:36;;;;;;;;;;;21.30;66.10;;;;;;5042606;28;19912;-80
2022/05/10 08:33:01;;;;;;;;;;;21.40;65.80;;;;;;5017312;28;19909;-81
2022/05/10 08:35:27;;;;;;;;;;;21.40;65.50;;;;;;5033905;28;19909;-80
2022/05/10 08:46:21;;;;;;;;;;;21.70;65.00;;;;;;5055718;28;19923;-81
2022/05/10 08:48:47;;;;;;;;;;;21.70;64.90;;;;;;5036669;28;19908;-80
2022/05/10 08:53:57;;;;;;;;;;;21.80;64.50;;;;;;5055250;28;20315;-80
2022/05/10 08:56:24;;;;;;;;;;;21.80;64.40;;;;;;5037088;28;19909;-81
2022/05/10 08:59:02;;;;;;;;;;;21.90;64.30;;;;;;5054854;28;19905;-81
2022/05/10 09:01:47;;;;;;;;;;;21.90;64.20;;;;;;5037085;28;19904;-80
2022/05/10 09:04:19;;;;;;;;;;;21.90;64.10;;;;;;5054530;28;19909;-80
2022/05/10 09:09:58;;;;;;;;;;;22.10;64.10;;;;;;5056022;28;20008;-80
2022/05/10 09:21:00;;;;;;;;;;;22.40;63.00;;;;;;5055202;28;19954;-81
2022/05/10 09:23:29;;;;;;;;;;;22.40;62.30;;;;;;5036793;28;19908;-80
2022/05/10 09:25:55;;;;;;;;;;;22.50;62.30;;;;;;5036268;28;19913;-81
2022/05/10 09:28:47;;;;;;;;;;;22.50;62.30;;;;;;5054273;28;19904;-80
2022/05/10 09:40:27;;;;;;;;;;;22.70;61.20;;;;;;5054028;28;19990;-80
2022/05/10 09:43:10;;;;;;;;;;;22.80;61.20;;;;;;5034430;28;20361;-80
2022/05/10 09:45:36;;;;;;;;;;;22.90;61.00;;;;;;5035775;28;19917;-80
2022/05/10 09:48:10;;;;;;;;;;;23.00;60.80;;;;;;5054224;28;19916;-80
2022/05/10 09:53:31;;;;;;;;;;;23.30;60.40;;;;;;5055054;28;19958;-80
2022/05/10 09:56:15;;;;;;;;;;;23.50;59.60;;;;;;5053894;28;20357;-81
2022/05/10 09:58:42;;;;;;;;;;;23.60;58.80;;;;;;5035816;28;19905;-81
2022/05/10 10:01:15;;;;;;;;;;;23.80;58.10;;;;;;5053791;28;19947;-80
2022/05/10 10:06:26;;;;;;;;;;;24.00;57.50;;;;;;5054989;28;20428;-80
2022/05/10 10:08:56;;;;;;;;;;;24.10;57.30;;;;;;5053792;28;19913;-81
2022/05/10 10:14:07;;;;;;;;;;;24.30;57.30;;;;;;5055161;28;20264;-81
2022/05/10 10:16:48;;;;;;;;;;;24.40;56.30;;;;;;5053592;28;19912;-80
2022/05/10 10:19:32;;;;;;;;;;;24.50;56.00;;;;;;5035605;28;19904;-80
2022/05/10 10:22:16;;;;;;;;;;;24.60;55.50;;;;;;5053187;28;19909;-80
2022/05/10 10:24:56;;;;;;;;;;;24.70;55.30;;;;;;5053426;28;20003;-80
2022/05/10 10:27:41;;;;;;;;;;;24.80;55.50;;;;;;5053391;28;19917;-81
2022/05/10 10:30:13;;;;;;;;;;;24.90;55.40;;;;;;5035486;28;19939;-80
2022/05/10 10:35:46;;;;;;;;;;;25.10;54.90;;;;;;5054291;28;19912;-81
2022/05/10 10:38:17;;;;;;;;;;;25.20;54.30;;;;;;5053344;28;19912;-81
2022/05/10 10:40:44;;;;;;;;;;;25.20;53.50;;;;;;5053299;28;20422;-80
2022/05/10 10:43:13;;;;;;;;;;;25.30;53.50;;;;;;5035574;28;19904;-81
2022/05/10 10:45:40;;;;;;;;;;;25.40;53.10;;;;;;5056103;28;19963;-80
2022/05/10 10:48:12;;;;;;;;;;;25.40;53.00;;;;;;5039249;28;19905;-81
2022/05/10 10:53:42;;;;;;;;;;;25.50;52.50;;;;;;5053556;28;20049;-81
2022/05/10 10:59:13;;;;;;;;;;;25.60;52.40;;;;;;5043801;28;19968;-81
2022/05/10 11:01:47;;;;;;;;;;;25.50;52.20;;;;;;5018211;28;20340;-81
2022/05/10 11:04:27;;;;;;;;;;;25.70;52.40;;;;;;5037213;28;19913;-80
2022/05/10 11:06:54;;;;;;;;;;;25.90;52.80;;;;;;5036116;28;19920;-80
2022/05/10 11:09:32;;;;;;;;;;;26.10;52.40;;;;;;5036494;28;20024;-81
2022/05/10 11:12:16;;;;;;;;;;;26.20;51.30;;;;;;5041260;28;19915;-80
2022/05/10 11:18:03;;;;;;;;;;;26.30;51.10;;;;;;5037677;28;19955;-81
2022/05/10 11:20:31;;;;;;;;;;;26.30;50.90;;;;;;5036741;28;19904;-81
2022/05/10 11:28:51;;;;;;;;;;;26.30;50.80;;;;;;5037007;28;19955;-80
2022/05/10 11:34:28;;;;;;;;;;;26.40;51.00;;;;;;5037252;28;20289;-80
2022/05/10 11:39:47;;;;;;;;;;;26.40;51.00;;;;;;5021848;28;19916;-81
2022/05/10 11:42:35;;;;;;;;;;;26.50;50.90;;;;;;5018515;28;20376;-81
2022/05/10 11:45:06;;;;;;;;;;;26.40;50.10;;;;;;5015140;28;19917;-80
2022/05/10 11:47:32;;;;;;;;;;;26.30;50.00;;;;;;5018042;28;20354;-81
2022/05/10 11:50:03;;;;;;;;;;;26.20;50.60;;;;;;5016126;28;19906;-81
2022/05/10 11:55:51;;;;;;;;;;;26.10;50.00;;;;;;5017358;28;19916;-80
2022/05/10 11:58:16;;;;;;;;;;;26.10;50.40;;;;;;5015881;28;20001;-81
2022/05/10 12:01:01;;;;;;;;;;;26.10;50.60;;;;;;5015268;28;20012;-81
2022/05/10 12:06:39;;;;;;;;;;;26.20;50.50;;;;;;5017102;28;19920;-81
2022/05/10 12:11:49;;;;;;;;;;;26.30;50.60;;;;;;5016104;28;19912;-81
2022/05/10 12:22:49;;;;;;;;;;;26.40;50.70;;;;;;5016607;28;19960;-81
2022/05/10 12:25:33;;;;;;;;;;;26.40;49.90;;;;;;5015725;28;19905;-81
2022/05/10 12:28:01;;;;;;;;;;;26.40;49.60;;;;;;5030802;28;19906;-81
2022/05/10 12:30:46;;;;;;;;;;;26.40;49.60;;;;;;5014335;28;19906;-81
2022/05/10 12:33:30;;;;;;;;;;;26.40;49.70;;;;;;5015998;28;19905;-81
2022/05/10 12:36:14;;;;;;;;;;;26.30;49.60;;;;;;5015753;28;19909;-81
2022/05/10 12:38:58;;;;;;;;;;;26.20;49.70;;;;;;5015825;28;19906;-81
2022/05/10 12:41:43;;;;;;;;;;;26.20;49.80;;;;;;5031256;28;20445;-81
2022/05/10 12:44:13;;;;;;;;;;;26.20;50.00;;;;;;5030577;28;20341;-82
2022/05/10 12:46:57;;;;;;;;;;;26.20;50.00;;;;;;5033204;28;19917;-79
2022/05/10 12:52:43;;;;;;;;;;;26.30;50.10;;;;;;5034814;28;19967;-80
2022/05/10 12:58:34;;;;;;;;;;;26.30;50.20;;;;;;5035826;28;19952;-81
2022/05/10 13:09:29;;;;;;;;;;;26.20;49.70;;;;;;5034780;28;19966;-80
2022/05/10 13:12:05;;;;;;;;;;;26.20;49.60;;;;;;5034901;28;20341;-80
2022/05/10 13:20:26;;;;;;;;;;;26.10;50.10;;;;;;5035687;28;19912;-81
2022/05/10 13:28:52;;;;;;;;;;;26.00;50.40;;;;;;5034688;28;19912;-81
2022/05/10 13:34:23;;;;;;;;;;;26.00;50.50;;;;;;5035226;28;20257;-81
2022/05/10 13:36:50;;;;;;;;;;;26.10;50.60;;;;;;5033023;28;19905;-80
2022/05/10 13:39:24;;;;;;;;;;;26.20;50.70;;;;;;5032743;28;19911;-82
2022/05/10 13:41:51;;;;;;;;;;;26.20;51.30;;;;;;5033327;28;19905;-81
2022/05/10 13:47:04;;;;;;;;;;;26.20;50.80;;;;;;5033874;28;19924;-81
2022/05/10 13:49:38;;;;;;;;;;;26.10;50.70;;;;;;5032794;28;19905;-81
2022/05/10 13:57:47;;;;;;;;;;;26.10;50.80;;;;;;5034365;28;19912;-81
2022/05/10 14:00:32;;;;;;;;;;;26.20;50.90;;;;;;5034297;28;19952;-82
2022/05/10 14:02:58;;;;;;;;;;;26.20;50.90;;;;;;5032851;28;20357;-82
2022/05/10 14:05:46;;;;;;;;;;;26.20;50.80;;;;;;5032563;28;19912;-81
2022/05/10 14:08:24;;;;;;;;;;;26.20;50.80;;;;;;5032513;28;19904;-81
2022/05/10 14:14:08;;;;;;;;;;;26.40;50.90;;;;;;5034319;28;19911;-81
2022/05/10 14:19:33;;;;;;;;;;;26.80;51.00;;;;;;5033859;28;19990;-81
2022/05/10 14:22:01;;;;;;;;;;;26.90;50.80;;;;;;5032499;28;19905;-81
2022/05/10 14:24:27;;;;;;;;;;;27.00;50.60;;;;;;5032632;28;19905;-81
2022/05/10 14:27:11;;;;;;;;;;;27.00;50.50;;;;;;5031407;28;19917;-81
2022/05/10 14:29:42;;;;;;;;;;;27.00;50.60;;;;;;5035687;28;20391;-81
2022/05/10 14:32:27;;;;;;;;;;;27.00;50.50;;;;;;5053350;28;19905;-81
2022/05/10 14:35:11;;;;;;;;;;;27.00;50.70;;;;;;5035436;28;19958;-81
2022/05/10 14:37:49;;;;;;;;;;;26.90;50.60;;;;;;5053164;28;19955;-82
2022/05/10 14:40:18;;;;;;;;;;;26.90;50.80;;;;;;5019640;28;19948;-81
2022/05/10 14:43:04;;;;;;;;;;;26.80;50.80;;;;;;5053489;28;19911;-80
2022/05/10 14:45:49;;;;;;;;;;;26.80;50.90;;;;;;5053724;28;19964;-80
2022/05/10 14:48:34;;;;;;;;;;;26.70;50.90;;;;;;5035592;28;20008;-81
2022/05/10 14:51:08;;;;;;;;;;;26.60;50.90;;;;;;5053892;28;20242;-80
2022/05/10 14:59:48;;;;;;;;;;;26.40;51.00;;;;;;5053795;28;19911;-80
2022/05/10 15:02:32;;;;;;;;;;;26.30;51.20;;;;;;5052939;28;19911;-81
2022/05/10 15:08:02;;;;;;;;;;;26.10;51.20;;;;;;5054416;28;19919;-81
2022/05/10 15:10:28;;;;;;;;;;;26.00;51.30;;;;;;5053219;28;19926;-82
2022/05/10 15:13:12;;;;;;;;;;;25.90;51.40;;;;;;5035785;28;20357;-80
2022/05/10 15:15:57;;;;;;;;;;;25.80;51.30;;;;;;5035598;28;19991;-80
2022/05/10 15:21:09;;;;;;;;;;;25.60;51.30;;;;;;5053636;28;19911;-80
2022/05/10 15:23:53;;;;;;;;;;;25.40;51.30;;;;;;5037198;28;19909;-82
2022/05/10 15:26:38;;;;;;;;;;;25.40;51.60;;;;;;5035161;28;20345;-80
2022/05/10 15:32:07;;;;;;;;;;;25.20;51.80;;;;;;5055652;28;19978;-81
2022/05/10 15:37:18;;;;;;;;;;;25.00;51.80;;;;;;5057977;28;19927;-81
2022/05/10 15:39:44;;;;;;;;;;;24.80;51.70;;;;;;5056325;28;19952;-82
2022/05/10 15:42:29;;;;;;;;;;;24.80;51.80;;;;;;5039080;28;19967;-81
2022/05/10 15:44:54;;;;;;;;;;;24.70;52.10;;;;;;5040544;28;19916;-81
2022/05/10 15:50:28;;;;;;;;;;;24.20;52.30;;;;;;5065328;28;20390;-81
2022/05/10 15:53:13;;;;;;;;;;;24.00;52.70;;;;;;5043231;28;19904;-82
2022/05/10 15:55:38;;;;;;;;;;;23.80;53.00;;;;;;5066650;28;19908;-80
2022/05/10 15:58:04;;;;;;;;;;;23.50;52.80;;;;;;5053475;28;19905;-80
2022/05/10 16:00:30;;;;;;;;;;;23.40;53.40;;;;;;5046546;28;19913;-79
2022/05/10 16:02:56;;;;;;;;;;;23.30;53.60;;;;;;5057755;28;19913;-79
2022/05/10 16:13:58;;;;;;;;;;;22.80;52.10;;;;;;5053919;28;19970;-80
2022/05/10 16:19:26;;;;;;;;;;;22.50;51.70;;;;;;5057435;28;19915;-81
2022/05/10 16:21:52;;;;;;;;;;;22.50;52.10;;;;;;5061162;28;19909;-81
2022/05/10 16:24:17;;;;;;;;;;;22.40;52.20;;;;;;5049331;28;19905;-80
2022/05/10 16:29:46;;;;;;;;;;;22.30;52.40;;;;;;5061319;28;19978;-80
2022/05/10 16:32:30;;;;;;;;;;;22.20;52.60;;;;;;5022361;28;19912;-79
2022/05/10 16:35:14;;;;;;;;;;;22.10;52.70;;;;;;5031683;28;19970;-81
2022/05/10 16:40:18;;;;;;;4.78;1.55;;;22.00;52.40;;;;;;5081811;27;20160;-85
2022/05/10 16:42:44;;;;;;;9.07;1.45;;;22.00;53.00;;;;;;5065606;28;20028;-80
2022/05/10 16:45:10;;;;;;;4.55;1.35;;;21.90;53.10;;;;;;5065383;28;20033;-83
2022/05/10 16:47:38;;;;;;;10.27;1.42;;;21.90;53.40;;;;;;5044826;28;20033;-87
2022/05/10 16:50:08;;;;;;;4.72;1.13;;;21.80;53.30;;;;;;5026924;28;20029;-86
2022/05/10 16:52:39;;;;;;;6.20;1.17;;;21.80;53.40;;;;;;5047815;28;20056;-83
2022/05/10 16:55:05;;;;;;;6.97;1.20;;;21.70;53.00;;;;;;5048059;28;20025;-82
2022/05/10 16:57:32;;;;;;;4.03;1.10;;;21.70;52.50;;;;;;5049156;28;20041;-83
2022/05/10 17:00:00;;;;;;;3.75;0.90;;;21.60;52.40;;;;;;5065655;28;20040;-82
2022/05/10 17:02:27;;;;;;;4.68;1.00;;;21.60;52.30;;;;;;5049089;28;20028;-84
2022/05/10 17:04:54;;;;;;;3.85;1.77;;;21.50;52.30;;;;;;5053545;28;20026;-88
2022/05/10 17:07:21;;;;;;;6.25;0.95;;;21.50;52.30;;;;;;5046382;28;20057;-86
2022/05/10 17:09:47;;;;;;;4.40;1.00;;;21.40;52.60;;;;;;5048748;28;20025;-84
2022/05/10 17:12:14;;;;;;;4.88;0.90;;;21.40;52.40;;;;;;5048676;28;20435;-85
2022/05/10 17:14:41;;;;;;;3.97;0.80;;;21.30;52.50;;;;;;5032037;28;20036;-83
2022/05/10 17:17:07;;;;;;;3.58;1.08;;;21.30;52.90;;;;;;5048448;28;20029;-87
2022/05/10 17:19:33;;;;;;;4.50;0.80;;;21.30;52.70;;;;;;5015968;28;20040;-83
2022/05/10 17:21:59;;;;;;;7.10;1.23;;;21.30;52.60;;;;;;5045307;28;20109;-87
2022/05/10 17:24:25;;;;;;;6.45;1.23;;;21.20;52.80;;;;;;5045689;28;20116;-86
2022/05/10 17:26:50;;;;;;;3.17;0.80;;;21.10;52.90;;;;;;5031837;28;20385;-84
2022/05/10 17:29:18;;;;;;;8.38;1.15;;;21.10;53.00;;;;;;5048489;28;20488;-86
2022/05/10 17:31:45;;;;;;;2.22;0.90;;;21.00;53.00;;;;;;5048759;28;20109;-84
2022/05/10 17:34:11;;;;;;;5.38;1.00;;;21.00;52.90;;;;;;5065035;28;20087;-82
2022/05/10 17:36:45;;;;;;;3.20;0.90;;;20.90;53.20;;;;;;5049781;28;20031;-86
2022/05/10 17:39:13;;;;;;;4.80;1.33;;;20.90;53.20;;;;;;5062221;28;20132;-82
2022/05/10 17:41:38;;;;;;;2.45;1.10;;;20.90;53.30;;;;;;5048236;28;20025;-85
2022/05/10 17:44:05;;;;;;;2.80;1.02;;;20.80;53.50;;;;;;5049688;28;20027;-84
2022/05/10 17:46:31;;;;;;;3.83;1.17;;;20.80;53.70;;;;;;5049693;28;20081;-83
2022/05/10 17:48:56;;;;;;;3.53;1.20;;;20.80;53.90;;;;;;5048025;28;20065;-83
2022/05/10 17:51:25;;;;;;;2.63;1.25;;;20.70;54.80;;;;;;5019770;28;20183;-80
2022/05/10 17:53:51;;;;;;;5.22;1.50;;;20.70;54.30;;;;;;5035998;28;20041;-82
2022/05/10 17:56:20;;;;;;;4.63;1.40;;;20.70;54.50;;;;;;5035856;28;20028;-84
2022/05/10 17:58:47;;;;;;;4.70;1.25;;;20.70;54.60;;;;;;5034808;28;20502;-85
2022/05/10 18:01:16;;;;;;;4.15;1.33;;;20.70;54.90;;;;;;5026886;28;20034;-80
2022/05/10 18:03:42;;;;;;;3.42;1.25;;;20.60;55.00;;;;;;5041901;28;20120;-84
2022/05/10 18:06:08;;;;;;;3.78;1.20;;;20.60;55.20;;;;;;5030960;28;20050;-85
2022/05/10 18:08:36;;;;;;;11.00;2.35;;;20.60;55.40;;;;;;5034476;28;20048;-82
2022/05/10 18:11:03;;;;;;;4.97;2.03;;;20.60;55.80;;;;;;5035353;28;20018;-83
2022/05/10 18:13:28;;;;;;;5.00;1.60;;;20.50;55.90;;;;;;5019787;28;20026;-83
2022/05/10 18:15:54;;;;;;;4.70;1.60;;;20.40;56.20;;;;;;5031326;28;20512;-83
2022/05/10 18:18:20;;;;;;;8.20;2.20;;;20.40;56.50;;;;;;5032800;28;20076;-81
2022/05/10 18:20:46;;;;;;;7.88;2.03;;;20.20;56.90;;;;;;5034415;28;20385;-81
2022/05/10 18:23:13;;;;;;;4.82;1.70;;;20.30;57.00;;;;;;5034708;28;20048;-84
2022/05/10 18:25:42;;;;;;;4.75;1.92;;;20.20;57.40;;;;;;5035478;28;20017;-84
2022/05/10 18:28:09;;;;;;;11.98;2.58;;;20.20;57.60;;;;;;5050536;28;20076;-84
2022/05/10 18:30:35;;;;;;;5.03;2.05;;;20.20;57.70;;;;;;5033674;28;20037;-83
2022/05/10 18:33:02;;;;;;;4.55;1.92;;;20.10;57.90;;;;;;5033849;28;20104;-84
2022/05/10 18:35:29;;;;;;;8.18;1.90;;;20.00;58.00;;;;;;5027279;28;20048;-81
2022/05/10 18:37:55;;;;;;;6.05;1.55;;;20.00;58.10;;;;;;5034024;28;20102;-83
2022/05/10 18:40:21;;;;;;;7.07;2.08;;;19.90;58.10;;;;;;5033701;28;20160;-85
2022/05/10 18:42:47;;;;;;;7.40;2.17;;;19.90;58.30;;;;;;5034145;28;20392;-80
2022/05/10 18:45:16;;;;;;;3.33;1.42;;;19.90;58.50;;;;;;5050507;28;20017;-80
2022/05/10 18:47:42;;;;;;;5.57;1.60;;;19.80;58.40;;;;;;5033872;28;20362;-81
2022/05/10 18:50:09;;;;;;;4.68;1.70;;;19.80;58.40;;;;;;5025532;28;20099;-79
2022/05/10 18:52:35;;;;;;;4.50;1.92;;;19.80;58.40;;;;;;5034942;28;20032;-79
2022/05/10 18:55:00;;;;;;;4.28;1.48;;;19.70;58.40;;;;;;5033806;28;20033;-85
2022/05/10 18:57:26;;;;;;;2.40;0.88;;;19.70;58.20;;;;;;5030796;28;20057;-80
2022/05/10 18:59:52;;;;;;;4.40;1.30;;;19.60;58.20;;;;;;5033573;28;20025;-83
2022/05/10 19:02:19;;;;;;;5.22;1.30;;;19.60;57.90;;;;;;5049122;28;20022;-79
2022/05/10 19:04:44;;;;;;;3.35;1.23;;;19.50;57.60;;;;;;5018215;28;20493;-82
2022/05/10 19:07:10;;;;;;;4.28;0.98;;;19.50;57.50;;;;;;5033577;28;20018;-81
2022/05/10 19:09:36;;;;;;;3.35;0.93;;;19.50;57.30;;;;;;5043625;28;20376;-81
2022/05/10 19:12:05;;;;;;;4.90;0.98;;;19.40;57.10;;;;;;5033338;28;20041;-79
2022/05/10 19:14:31;;;;;;;4.05;1.10;;;19.30;57.00;;;;;;5040242;28;20546;-82
2022/05/10 19:16:57;;;;;;;3.00;0.98;;;19.30;57.10;;;;;;5034331;28;20116;-79
2022/05/10 19:19:25;;;;;;;5.10;1.20;;;19.30;57.30;;;;;;5049506;28;20033;-80